PHVFJ LEMH-LEIB

Flight info

Callsign PHVFJ
Flight time 0h 48m
Altitude 23000
Route NEVIC
Aircraft SF50/L-BDGRSWY/LB2U2

Departure

Time 2026-04-22 19:30
Airport Menorca Airport (LEMH)

Arrival

Time 2026-04-22 20:19
Airport Ibiza Airport (LEIB)
Time Latitude Longitude Altitude Speed Heading
2026-04-22 19:09 39.86059 4.22277 293 ft 0 kts
2026-04-22 19:22 39.86100 4.22276 294 ft 20 kts
2026-04-22 19:22 39.86142 4.22282 294 ft 1 kts 333°
2026-04-22 19:23 39.86146 4.22281 294 ft 6 kts 355°
2026-04-22 19:23 39.86185 4.22264 296 ft 8 kts 335°
2026-04-22 19:23 39.86254 4.22272 295 ft 12 kts
2026-04-22 19:24 39.86352 4.22293 296 ft 16 kts 10°
2026-04-22 19:24 39.86460 4.22312 299 ft 16 kts 12°
2026-04-22 19:24 39.86571 4.22338 301 ft 16 kts
2026-04-22 19:24 39.86677 4.22357 300 ft 15 kts 14°
2026-04-22 19:25 39.86773 4.22381 301 ft 13 kts 12°
2026-04-22 19:25 39.86858 4.22397 302 ft 12 kts
2026-04-22 19:25 39.86914 4.22356 302 ft 10 kts 289°
2026-04-22 19:25 39.86938 4.22269 303 ft 11 kts 318°
2026-04-22 19:26 39.87013 4.22259 303 ft 12 kts 10°
2026-04-22 19:26 39.87103 4.22275 304 ft 14 kts 10°
2026-04-22 19:26 39.87207 4.22297 305 ft 16 kts
2026-04-22 19:26 39.87295 4.22326 306 ft 10 kts 12°
2026-04-22 19:27 39.87350 4.22337 307 ft 7 kts
2026-04-22 19:27 39.87392 4.22338 307 ft 6 kts
2026-04-22 19:27 39.87439 4.22331 307 ft 7 kts 328°
2026-04-22 19:27 39.87456 4.22275 307 ft 7 kts 259°
2026-04-22 19:28 39.87439 4.22213 307 ft 7 kts 244°
2026-04-22 19:28 39.87413 4.22167 308 ft 0 kts 223°
2026-04-22 19:29 39.87408 4.22162 308 ft 5 kts 223°
2026-04-22 19:29 39.87354 4.22104 308 ft 14 kts 207°
2026-04-22 19:29 39.87268 4.22076 307 ft 11 kts 190°
2026-04-22 19:30 39.87213 4.22064 307 ft 15 kts 184°
2026-04-22 19:30 39.86621 4.21943 299 ft 112 kts 187°
2026-04-22 19:30 39.85731 4.21749 624 ft 134 kts 187°
2026-04-22 19:30 39.84874 4.21589 1410 ft 123 kts 183°
2026-04-22 19:31 39.83954 4.21439 1621 ft 148 kts 182°
2026-04-22 19:31 39.82849 4.21272 1955 ft 172 kts 180°
2026-04-22 19:31 39.81642 4.21103 2529 ft 177 kts 181°
2026-04-22 19:31 39.80402 4.20894 3078 ft 181 kts 184°
2026-04-22 19:32 39.79143 4.20665 3659 ft 183 kts 185°
2026-04-22 19:32 39.77889 4.20445 4254 ft 182 kts 184°
2026-04-22 19:32 39.76626 4.20244 4782 ft 184 kts 185°
2026-04-22 19:32 39.75355 4.20023 5293 ft 185 kts 186°
2026-04-22 19:33 39.74106 4.19662 5802 ft 184 kts 207°
2026-04-22 19:33 39.73303 4.18459 6392 ft 174 kts 247°
2026-04-22 19:33 39.73203 4.16971 7079 ft 163 kts 280°
2026-04-22 19:33 39.73497 4.15604 7825 ft 150 kts 282°
2026-04-22 19:34 39.73752 4.14357 8560 ft 136 kts 282°
2026-04-22 19:34 39.73974 4.13241 9310 ft 119 kts 282°
2026-04-22 19:34 39.74159 4.12281 10039 ft 100 kts 282°
2026-04-22 19:34 39.74312 4.11450 10535 ft 92 kts 282°
2026-04-22 19:35 39.74446 4.10653 10963 ft 89 kts 281°
2026-04-22 19:35 39.74569 4.09890 11380 ft 85 kts 281°
2026-04-22 19:35 39.74682 4.09138 11749 ft 86 kts 282°
2026-04-22 19:35 39.74714 4.08372 12145 ft 88 kts 259°
2026-04-22 19:36 39.74468 4.07611 12516 ft 93 kts 246°
2026-04-22 19:36 39.74025 4.06955 12875 ft 98 kts 239°
2026-04-22 19:36 39.73611 4.06267 13295 ft 94 kts 244°
2026-04-22 19:36 39.73192 4.05554 13601 ft 103 kts 245°
2026-04-22 19:37 39.72726 4.04803 13949 ft 111 kts 241°
2026-04-22 19:37 39.72218 4.03995 14249 ft 121 kts 240°
2026-04-22 19:37 39.71654 4.03108 14564 ft 133 kts 239°
2026-04-22 19:37 39.71031 4.02136 14858 ft 147 kts 234°
2026-04-22 19:38 39.70328 4.01088 15150 ft 160 kts 234°
2026-04-22 19:38 39.69596 3.99956 15434 ft 172 kts 235°
2026-04-22 19:38 39.68809 3.98725 15718 ft 182 kts 232°
2026-04-22 19:38 39.67957 3.97454 15991 ft 191 kts 232°
2026-04-22 19:39 39.67089 3.96104 16272 ft 197 kts 233°
2026-04-22 19:39 39.66234 3.94720 16702 ft 196 kts 235°
2026-04-22 19:39 39.65369 3.93344 17097 ft 198 kts 232°
2026-04-22 19:39 39.64492 3.91998 17570 ft 194 kts 233°
2026-04-22 19:40 39.63638 3.90660 18054 ft 190 kts 233°
2026-04-22 19:40 39.62806 3.89340 18517 ft 187 kts 234°
2026-04-22 19:40 39.61987 3.88046 18948 ft 184 kts 234°
2026-04-22 19:40 39.61179 3.86780 19379 ft 181 kts 233°
2026-04-22 19:41 39.60382 3.85535 19817 ft 177 kts 234°
2026-04-22 19:41 39.59606 3.84314 20263 ft 174 kts 234°
2026-04-22 19:41 39.58841 3.83118 20715 ft 170 kts 234°
2026-04-22 19:41 39.58092 3.81950 21166 ft 167 kts 234°
2026-04-22 19:42 39.57362 3.80808 21640 ft 162 kts 234°
2026-04-22 19:42 39.56649 3.79699 22106 ft 158 kts 234°
2026-04-22 19:42 39.55964 3.78623 22582 ft 152 kts 236°
2026-04-22 19:42 39.55301 3.77580 23027 ft 150 kts 236°
2026-04-22 19:43 39.53773 3.75184 23059 ft 194 kts 233°
2026-04-22 19:43 39.52857 3.73789 23056 ft 212 kts 235°
2026-04-22 19:43 39.51909 3.72243 23050 ft 226 kts 235°
2026-04-22 19:44 39.50892 3.70634 23051 ft 238 kts 234°
2026-04-22 19:44 39.49820 3.68951 23052 ft 246 kts 234°
2026-04-22 19:44 39.48689 3.67249 23049 ft 252 kts 231°
2026-04-22 19:44 39.47525 3.65527 23035 ft 257 kts 233°
2026-04-22 19:45 39.46366 3.63748 23031 ft 260 kts 231°
2026-04-22 19:45 39.45199 3.61947 23031 ft 262 kts 231°
2026-04-22 19:45 39.44025 3.60127 23033 ft 264 kts 231°
2026-04-22 19:45 39.42841 3.58294 23031 ft 267 kts 231°
2026-04-22 19:46 39.41647 3.56441 23029 ft 269 kts 231°
2026-04-22 19:46 39.40441 3.54574 23032 ft 272 kts 231°
2026-04-22 19:46 39.39221 3.52695 23034 ft 274 kts 231°
2026-04-22 19:46 39.38074 3.50929 23036 ft 277 kts 230°
2026-04-22 19:47 39.36823 3.49001 23029 ft 279 kts 232°
2026-04-22 19:47 39.35582 3.47053 23034 ft 281 kts 232°
2026-04-22 19:47 39.34325 3.45112 23029 ft 283 kts 231°
2026-04-22 19:47 39.33233 3.43021 22962 ft 280 kts 244°
2026-04-22 19:48 39.32537 3.40695 22985 ft 276 kts 253°
2026-04-22 19:48 39.32043 3.38311 23032 ft 275 kts 255°
2026-04-22 19:48 39.31540 3.35926 23031 ft 275 kts 254°
2026-04-22 19:48 39.31006 3.33553 23026 ft 275 kts 251°
2026-04-22 19:49 39.30466 3.31193 23023 ft 274 kts 255°
2026-04-22 19:49 39.29694 3.28938 23069 ft 279 kts 242°
2026-04-22 19:49 39.28687 3.26778 23037 ft 281 kts 243°
2026-04-22 19:49 39.27862 3.24499 23017 ft 280 kts 251°
2026-04-22 19:50 39.27257 3.22112 23032 ft 280 kts 254°
2026-04-22 19:50 39.26672 3.19712 23031 ft 281 kts 252°
2026-04-22 19:50 39.26008 3.17331 23028 ft 282 kts 251°
2026-04-22 19:50 39.25322 3.14952 23022 ft 283 kts 251°
2026-04-22 19:51 39.24661 3.12567 23024 ft 283 kts 252°
2026-04-22 19:51 39.24000 3.10175 23023 ft 283 kts 251°
2026-04-22 19:51 39.23339 3.07789 23022 ft 283 kts 251°
2026-04-22 19:51 39.22674 3.05395 23024 ft 283 kts 251°
2026-04-22 19:52 39.22006 3.03005 23026 ft 283 kts 251°
2026-04-22 19:52 39.21341 3.00614 23025 ft 283 kts 251°
2026-04-22 19:52 39.20674 2.98220 23023 ft 284 kts 251°
2026-04-22 19:52 39.20007 2.95830 23022 ft 284 kts 251°
2026-04-22 19:53 39.19338 2.93435 23028 ft 284 kts 251°
2026-04-22 19:53 39.18669 2.91044 23029 ft 284 kts 251°
2026-04-22 19:53 39.18220 2.89427 23029 ft 284 kts 251°
2026-04-22 19:53 39.17329 2.86261 23022 ft 284 kts 252°
2026-04-22 19:54 39.16712 2.83968 23030 ft 284 kts 253°
2026-04-22 19:54 39.16061 2.81559 23025 ft 285 kts 252°
2026-04-22 19:54 39.15332 2.79191 23025 ft 284 kts 247°
2026-04-22 19:54 39.14595 2.76841 23017 ft 283 kts 249°
2026-04-22 19:55 39.13928 2.74461 23024 ft 282 kts 250°
2026-04-22 19:55 39.13280 2.72080 23023 ft 281 kts 251°
2026-04-22 19:55 39.12629 2.69713 23025 ft 281 kts 250°
2026-04-22 19:55 39.11957 2.67348 23024 ft 281 kts 250°
2026-04-22 19:56 39.11288 2.64989 23022 ft 280 kts 250°
2026-04-22 19:56 39.10623 2.62627 23024 ft 280 kts 250°
2026-04-22 19:56 39.09957 2.60271 23024 ft 280 kts 250°
2026-04-22 19:56 39.09291 2.57919 23011 ft 280 kts 250°
2026-04-22 19:57 39.08626 2.55571 23021 ft 279 kts 250°
2026-04-22 19:57 39.07960 2.53224 23025 ft 279 kts 250°
2026-04-22 19:57 39.07294 2.50876 23018 ft 279 kts 250°
2026-04-22 19:57 39.06628 2.48529 23019 ft 279 kts 250°
2026-04-22 19:58 39.05963 2.46185 23021 ft 279 kts 250°
2026-04-22 19:58 39.05297 2.43842 23020 ft 279 kts 250°
2026-04-22 19:58 39.04638 2.41529 23014 ft 279 kts 250°
2026-04-22 19:58 39.03963 2.39158 23021 ft 279 kts 250°
2026-04-22 19:59 39.03294 2.36817 23024 ft 279 kts 250°
2026-04-22 20:00 38.99274 2.22773 23015 ft 278 kts 250°
2026-04-22 20:00 38.98606 2.20444 23020 ft 278 kts 250°
2026-04-22 20:01 38.97937 2.18112 23012 ft 278 kts 250°
2026-04-22 20:01 38.97278 2.15814 23019 ft 278 kts 250°
2026-04-22 20:01 38.96607 2.13487 23014 ft 278 kts 250°
2026-04-22 20:01 38.95935 2.11159 23006 ft 278 kts 250°
2026-04-22 20:02 38.95336 2.09073 23010 ft 278 kts 250°
2026-04-22 20:02 38.94679 2.06795 23014 ft 278 kts 250°
2026-04-22 20:02 38.94004 2.04464 23011 ft 278 kts 250°
2026-04-22 20:02 38.93331 2.02137 23017 ft 278 kts 250°
2026-04-22 20:03 38.92658 1.99810 23014 ft 278 kts 250°
2026-04-22 20:03 38.91986 1.97489 23006 ft 278 kts 250°
2026-04-22 20:03 38.91312 1.95165 23007 ft 278 kts 250°
2026-04-22 20:03 38.90630 1.92823 22798 ft 284 kts 249°
2026-04-22 20:04 38.89925 1.90403 22427 ft 291 kts 249°
2026-04-22 20:04 38.89215 1.87963 22065 ft 294 kts 249°
2026-04-22 20:04 38.88499 1.85510 21706 ft 295 kts 249°
2026-04-22 20:04 38.87775 1.83026 21332 ft 296 kts 249°
2026-04-22 20:05 38.87046 1.80535 20766 ft 298 kts 249°
2026-04-22 20:05 38.86324 1.78059 20220 ft 296 kts 249°
2026-04-22 20:05 38.85604 1.75590 19683 ft 296 kts 248°
2026-04-22 20:05 38.84876 1.73113 19156 ft 298 kts 248°
2026-04-22 20:06 38.84390 1.71456 18801 ft 298 kts 248°
2026-04-22 20:06 38.83659 1.68963 18289 ft 299 kts 248°
2026-04-22 20:06 38.82925 1.66465 17696 ft 300 kts 248°
2026-04-22 20:06 38.81949 1.63150 16934 ft 300 kts 248°
2026-04-22 20:07 38.81212 1.60645 16336 ft 300 kts 248°
2026-04-22 20:07 38.80476 1.58157 15494 ft 295 kts 251°
2026-04-22 20:07 38.80031 1.56488 14945 ft 291 kts 254°
2026-04-22 20:07 38.79413 1.54038 14126 ft 287 kts 253°
2026-04-22 20:08 38.78734 1.51659 13191 ft 283 kts 251°
2026-04-22 20:08 38.78022 1.49316 12315 ft 280 kts 250°
2026-04-22 20:08 38.77390 1.46973 11470 ft 277 kts 251°
2026-04-22 20:08 38.76757 1.44697 10659 ft 263 kts 252°
2026-04-22 20:09 38.76231 1.42575 9855 ft 244 kts 253°
2026-04-22 20:09 38.75782 1.40503 8983 ft 235 kts 255°
2026-04-22 20:09 38.75398 1.38483 8143 ft 231 kts 257°
2026-04-22 20:09 38.75090 1.36504 7335 ft 229 kts 259°
2026-04-22 20:10 38.74850 1.34466 6529 ft 228 kts 262°
2026-04-22 20:10 38.74681 1.32472 5715 ft 228 kts 260°
2026-04-22 20:10 38.74496 1.30449 4896 ft 223 kts 261°
2026-04-22 20:10 38.74328 1.28500 4076 ft 222 kts 262°
2026-04-22 20:11 38.74175 1.26532 3266 ft 223 kts 263°
2026-04-22 20:11 38.74052 1.24606 3023 ft 209 kts 264°
2026-04-22 20:11 38.73956 1.22724 3049 ft 217 kts 264°
2026-04-22 20:11 38.74025 1.21018 3709 ft 192 kts 280°
2026-04-22 20:12 38.74538 1.19371 3398 ft 213 kts 295°
2026-04-22 20:12 38.75569 1.17710 2745 ft 247 kts 316°
2026-04-22 20:12 38.76836 1.16323 2865 ft 237 kts 322°
2026-04-22 20:12 38.78095 1.15224 2985 ft 228 kts 330°
2026-04-22 20:13 38.79626 1.14936 2991 ft 228 kts 14°
2026-04-22 20:13 38.80833 1.16145 2998 ft 224 kts 63°
2026-04-22 20:13 38.80962 1.18059 2966 ft 219 kts 109°
2026-04-22 20:13 38.79961 1.19421 2979 ft 214 kts 154°
2026-04-22 20:14 38.78526 1.19479 3082 ft 209 kts 207°
2026-04-22 20:14 38.77841 1.18119 3893 ft 182 kts 252°
2026-04-22 20:14 38.78353 1.16641 4537 ft 186 kts 331°
2026-04-22 20:14 38.79336 1.17100 4661 ft 167 kts 61°
2026-04-22 20:15 38.79747 1.18542 4225 ft 172 kts 73°
2026-04-22 20:15 38.80215 1.19972 3765 ft 179 kts 68°
2026-04-22 20:15 38.80768 1.21360 3486 ft 171 kts 64°
2026-04-22 20:15 38.81314 1.22773 3023 ft 172 kts 65°
2026-04-22 20:16 38.81822 1.24141 2548 ft 172 kts 68°
2026-04-22 20:16 38.82360 1.25516 2242 ft 166 kts 62°
2026-04-22 20:16 38.82952 1.26748 2000 ft 160 kts 62°
2026-04-22 20:16 38.83508 1.27968 1697 ft 159 kts 63°
2026-04-22 20:17 38.83956 1.29214 1412 ft 157 kts 69°
2026-04-22 20:17 38.84452 1.30475 1082 ft 157 kts 64°
2026-04-22 20:17 38.84959 1.31700 788 ft 152 kts 68°
2026-04-22 20:17 38.85432 1.32830 645 ft 139 kts 64°
2026-04-22 20:18 38.85862 1.33838 534 ft 117 kts 64°
2026-04-22 20:18 38.86227 1.34745 176 ft 116 kts 65°
2026-04-22 20:18 38.86603 1.35664 68 ft 110 kts 62°
2026-04-22 20:18 38.86937 1.36469 0 ft 92 kts 60°
2026-04-22 20:19 38.87213 1.37124 5 ft 75 kts 63°
2026-04-22 20:19 38.87423 1.37629 3 ft 48 kts 63°
2026-04-22 20:19 38.87538 1.37816 5 ft 19 kts 38°
2026-04-22 20:19 38.87637 1.37900 4 ft 15 kts 34°
2026-04-22 20:20 38.87712 1.37960 3 ft 11 kts 31°
2026-04-22 20:20 38.87759 1.38010 3 ft 5 kts 19°
2026-04-22 20:20 38.87753 1.37986 3 ft 4 kts 241°
2026-04-22 20:20 38.87735 1.37948 3 ft 6 kts 239°
2026-04-22 20:21 38.87713 1.37897 3 ft 7 kts 241°
2026-04-22 20:21 38.87683 1.37825 3 ft 10 kts 244°
2026-04-22 20:21 38.87657 1.37759 3 ft 7 kts 242°
2026-04-22 20:21 38.87626 1.37687 3 ft 11 kts 242°
2026-04-22 20:22 38.87590 1.37600 3 ft 10 kts 256°
2026-04-22 20:22 38.87612 1.37541 2 ft 6 kts 320°
2026-04-22 20:22 38.87638 1.37521 2 ft 3 kts 333°
2026-04-22 20:22 38.87668 1.37500 2 ft 8 kts 332°
2026-04-22 20:23 38.87708 1.37513 2 ft 5 kts 40°
2026-04-22 20:23 38.87723 1.37537 2 ft 2 kts 59°
2026-04-22 20:23 38.87731 1.37560 2 ft 3 kts 81°
2026-04-22 20:23 38.87724 1.37584 2 ft 1 kts 131°
2026-04-22 20:24 38.87711 1.37590 2 ft 6 kts 176°
2026-04-22 20:24 38.87717 1.37572 2 ft 3 kts 353°
2026-04-22 20:24 38.87745 1.37556 2 ft 6 kts 311°
2026-04-22 20:24 38.87761 1.37529 2 ft 1 kts 304°
2026-04-22 20:25 38.87762 1.37528 2 ft 0 kts 302°
2026-04-22 20:25 38.87756 1.37515 2 ft 0 kts 236°
2026-04-22 20:25 38.87753 1.37509 2 ft 0 kts 240°